Tropical Cyclones
[Index]
Main Index Home Page Stock Weather Photos Extreme Storms Discussion Storm News and Storm Chasing Reports Tropical Cyclones / Hurricanes / Typhoons Weather Data and Links Wild Fires / Bushfires Weather Observation Techniques Weather Picture Catalogue Tornado Pictures and Reports Stock Video Footage and DVDs for sale
Season 2009-2010 Tropical Cyclone PAT Track Map
Season 2009-2010 Summaries: [BoM-AU] [JTWC-AU] [JTWC-SIO] [JTWC-SPAC] [JTWC-SH]
<<- Previous TC | JTWC 2009-2010 Season | Next TC ->>

click for intensity scale information  Lat/long Grid: Show Hide

 Date Labels: Show Hide

Joint Typhoon Warning Centre Cyclone Data

Name: PAT

06 Feb 2010 18:00 UTC to 12 Feb 2010 00:00 UTC

    date/time    lat    long     hPa   cat  kts
2010-02-06 18    8.5   165.7W   1010         15          
2010-02-07 00    8.7   165.1W   1007         20          
2010-02-07 06    9.2   164.4W   1004         25          
2010-02-07 12    9.9   163.4W   1000         30          
2010-02-07 18   10.6   162.4W    996         35          
2010-02-08 00   11.4   161.5W    989    1    45          
2010-02-08 06   12.4   160.8W    985    1    50          
2010-02-08 12   13.2   160.1W    982    2    55          
2010-02-08 12   13.2   160.1W    982    2    55          
2010-02-08 18   13.8   159.6W    978    2    60          
2010-02-08 18   13.8   159.6W    978    2    60          
2010-02-09 00   14.5   159.3W    978    2    60          
2010-02-09 00   14.5   159.3W    978    2    60          
2010-02-09 06   15.2   159.1W    974    2    65          
2010-02-09 06   15.2   159.1W    974    2    65          
2010-02-09 12   15.9   158.9W    970    2    70          
2010-02-09 12   15.9   158.9W    970    2    70          
2010-02-09 12   15.9   158.9W    970    2    70          
2010-02-09 18   16.6   158.9W    967    3    75          
2010-02-09 18   16.6   158.9W    967    3    75          
2010-02-09 18   16.6   158.9W    967    3    75          
2010-02-10 00   17.4   159.1W    963    3    80          
2010-02-10 00   17.4   159.1W    963    3    80          
2010-02-10 00   17.4   159.1W    963    3    80          
2010-02-10 06   18.1   159.3W    956    3    90          
2010-02-10 06   18.1   159.3W    956    3    90          
2010-02-10 06   18.1   159.3W    956    3    90          
2010-02-10 12   18.6   159.6W    956    3    90          
2010-02-10 12   18.6   159.6W    956    3    90          
2010-02-10 12   18.6   159.6W    956    3    90          
2010-02-10 18   19.2   160.1W    963    3    80          
2010-02-10 18   19.2   160.1W    963    3    80          
2010-02-10 18   19.2   160.1W    963    3    80          
2010-02-11 00   20.0   161.1W    967    3    75          
2010-02-11 00   20.0   161.1W    967    3    75          
2010-02-11 06   20.9   162.4W    978    2    60          
2010-02-11 06   20.9   162.4W    978    2    60          
2010-02-11 12   21.6   163.8W    993    1    40          
2010-02-11 18   22.0   165.6W   1000         30          
2010-02-12 00   22.2   166.6W   1004         25          
Winds are 1-min average.

Tropical cyclone tracks developed by Michael Bath using data from the Joint Typhoon Warning Centre Best Tracks and Google Maps.


[Australian Severe Weather index] [Copyright Notice] [Email Contacts] [Search This Site] [Privacy Policy]
Document: tropical_cyclone_pat.htm Updated: 28 June 2017